Météo Nord-Pas-de-Calais   La météo au plus près de chez vous

Station météorologique

Observations météo à Quimper (29216)

29216001 82 m Dernier relevé à 05:06
18.4°C
Humidité 95 % Vent 10.4 km/h 1022.8 hPa

Journée consultée

Jeudi 3 Septembre 2026

Synthèse de la journée

Périodes de référence en UTC

Température maximale

22.4°C

à 16:00

06h 06h

Température minimale

18.4°C

à 04:54

18h 18h

Rafale maximale

23 km/h

à 03:12

00h 00h

Précipitations

0.2 mm

Cumul quotidien

06h 06h

Ensoleillement

0h 0 mins

Durée quotidienne

00h 00h

Graphiques de la journée

Heure locale Réduire

Données détaillées

Relevés météo

Pas de 6 minutes Afficher les relevés infra-horaires
Relevés météo détaillés à Quimper pour le Jeudi 3 Septembre 2026
Heure Température °C Point de rosée °C Humidité % Vent moyen (raf.), km/h Précipitations mm Température à 10 cm °C Température à 20 cm °C Température à 50 cm °C Visibilité m État du sol   Ensoleillement min Rayonnement global W/m² Pression hPa Nébulosité Octas
05:06 18.4 °C 17.4 °C 94 % 13 km/h (21 km/h) 0 mm0 mm 19.5 °C 19.3 °C 19.1 °C 59940 m 0   0 min 0 W/m² 1022.7 hPa
05:00 18.4 °C 17.4 °C 94 % 10 km/h (16 km/h) 0 mm0 mm 19.5 °C 19.3 °C 19.1 °C 60000 m 0   0 min 0 W/m² 1022.7 hPa 8 Octas
04:54 18.4 °C 17.4 °C 94 % 10 km/h (16 km/h) 0 mm0 mm 19.5 °C 19.3 °C 19.1 °C 60000 m 0   0 min 0 W/m² 1022.7 hPa
04:48 18.5 °C 17.5 °C 94 % 10 km/h (16 km/h) 0 mm0 mm 19.5 °C 19.3 °C 19.1 °C 59810 m 0   0 min 0 W/m² 1022.7 hPa
04:42 18.5 °C 17.5 °C 94 % 10 km/h (15 km/h) 0 mm0 mm 19.5 °C 19.3 °C 19.1 °C 58820 m 0   0 min 0 W/m² 1022.7 hPa
04:36 18.5 °C 17.7 °C 95 % 9 km/h (14 km/h) 0 mm0 mm 19.5 °C 19.3 °C 19.1 °C 57680 m 0   0 min 0 W/m² 1022.7 hPa
04:30 18.5 °C 17.7 °C 95 % 9 km/h (15 km/h) 0 mm0 mm 19.5 °C 19.3 °C 19.1 °C 55400 m 0   0 min 0 W/m² 1022.7 hPa
04:24 18.6 °C 17.8 °C 95 % 10 km/h (15 km/h) 0 mm0 mm 19.5 °C 19.3 °C 19.1 °C 54660 m 0   0 min 0 W/m² 1022.7 hPa
04:18 18.6 °C 17.8 °C 95 % 10 km/h (18 km/h) 0 mm0 mm 19.5 °C 19.3 °C 19.1 °C 54680 m 0   0 min 0 W/m² 1022.8 hPa
04:12 18.6 °C 17.8 °C 95 % 11 km/h (18 km/h) 0 mm0 mm 19.5 °C 19.3 °C 19.1 °C 50870 m 0   0 min 0 W/m² 1022.8 hPa
04:06 18.7 °C 17.9 °C 95 % 10 km/h (16 km/h) 0 mm0 mm 19.5 °C 19.3 °C 19.1 °C 46530 m 0   0 min 0 W/m² 1022.8 hPa
04:00 18.7 °C 17.9 °C 95 % 9 km/h (14 km/h) 0 mm0 mm 19.5 °C 19.3 °C 19.1 °C 19980 m 0   0 min 0 W/m² 1022.7 hPa 8 Octas
03:54 18.8 °C 18 °C 95 % 10 km/h (17 km/h) 0 mm0 mm 19.5 °C 19.3 °C 19.1 °C 19750 m 0   0 min 0 W/m² 1022.7 hPa
03:48 18.9 °C 18.1 °C 95 % 12 km/h (21 km/h) 0 mm0 mm 19.5 °C 19.4 °C 19.1 °C 19140 m 0   0 min 0 W/m² 1022.8 hPa
03:42 18.9 °C 18.1 °C 95 % 12 km/h (19 km/h) 0 mm0 mm 19.5 °C 19.3 °C 19.1 °C 19410 m 0   0 min 0 W/m² 1022.9 hPa
03:36 19 °C 18.2 °C 95 % 12 km/h (18 km/h) 0 mm0 mm 19.5 °C 19.4 °C 19.1 °C 17850 m 0   0 min 0 W/m² 1023 hPa
03:30 19 °C 18.2 °C 95 % 13 km/h (21 km/h) 0 mm0 mm 19.5 °C 19.4 °C 19.1 °C 16370 m 0   0 min 0 W/m² 1023 hPa
03:24 19 °C 18.2 °C 95 % 14 km/h (20 km/h) 0 mm0 mm 19.5 °C 19.4 °C 19.1 °C 18880 m 0   0 min 0 W/m² 1023.1 hPa
03:18 19 °C 18.2 °C 95 % 12 km/h (23 km/h) 0 mm0 mm 19.5 °C 19.3 °C 19.1 °C 19420 m 0   0 min 0 W/m² 1023 hPa
03:12 19 °C 18.2 °C 95 % 12 km/h (23 km/h) 0 mm0 mm 19.5 °C 19.3 °C 19.1 °C 19920 m 0   0 min 0 W/m² 1023.1 hPa
03:06 19 °C 18.3 °C 96 % 12 km/h (22 km/h) 0 mm0 mm 19.6 °C 19.4 °C 19.1 °C 19710 m 0   0 min 0 W/m² 1023.2 hPa
03:00 19 °C 18.3 °C 96 % 13 km/h (22 km/h) 0 mm0 mm 19.6 °C 19.4 °C 19.1 °C 19580 m 0   0 min 0 W/m² 1023.2 hPa 8 Octas
02:54 19 °C 18.2 °C 95 % 12 km/h (20 km/h) 0 mm0 mm 19.5 °C 19.4 °C 19.1 °C 40780 m 0   0 min 0 W/m² 1023.1 hPa
02:48 18.9 °C 18.1 °C 95 % 11 km/h (15 km/h) 0 mm0 mm 19.6 °C 19.4 °C 19.1 °C 45110 m 0   0 min 0 W/m² 1023 hPa
02:42 18.9 °C 18.1 °C 95 % 12 km/h (18 km/h) 0 mm0 mm 19.6 °C 19.4 °C 19.1 °C 44750 m 0   0 min 0 W/m² 1022.8 hPa
02:36 18.9 °C 18.1 °C 95 % 12 km/h (19 km/h) 0 mm0 mm 19.6 °C 19.3 °C 19.1 °C 41460 m 0   0 min 0 W/m² 1022.7 hPa
02:30 19 °C 18.2 °C 95 % 12 km/h (19 km/h) 0 mm0 mm 19.6 °C 19.4 °C 19.1 °C 41510 m 0   0 min 0 W/m² 1022.6 hPa
02:24 19 °C 18 °C 94 % 12 km/h (19 km/h) 0 mm0 mm 19.6 °C 19.4 °C 19.1 °C 44910 m 0   0 min 0 W/m² 1023 hPa
02:18 19.1 °C 18.1 °C 94 % 11 km/h (19 km/h) 0 mm0 mm 19.6 °C 19.4 °C 19.1 °C 48810 m 0   0 min 0 W/m² 1023.2 hPa
02:12 19.1 °C 18.1 °C 94 % 13 km/h (19 km/h) 0 mm0 mm 19.6 °C 19.4 °C 19.1 °C 50410 m 0   0 min 0 W/m² 1023.3 hPa
02:06 19.1 °C 18.1 °C 94 % 13 km/h (19 km/h) 0 mm0 mm 19.6 °C 19.4 °C 19.1 °C 50690 m 0   0 min 0 W/m² 1023.4 hPa
02:00 19.1 °C 18.1 °C 94 % 13 km/h (23 km/h) 0 mm0 mm 19.6 °C 19.4 °C 19.1 °C 51510 m 0   0 min 0 W/m² 1023.4 hPa 8 Octas
01:54 19.1 °C 18.1 °C 94 % 15 km/h (24 km/h) 0 mm0 mm 19.6 °C 19.4 °C 19.1 °C 50370 m 0   0 min 0 W/m² 1023.5 hPa
01:48 19.2 °C 18 °C 93 % 15 km/h (25 km/h) 0 mm0 mm 19.6 °C 19.4 °C 19.1 °C 49930 m 0   0 min 0 W/m² 1023.2 hPa
01:42 19.2 °C 18 °C 93 % 13 km/h (22 km/h) 0 mm0 mm 19.6 °C 19.4 °C 19.1 °C 52770 m 0   0 min 0 W/m² 1023.4 hPa
01:36 19.2 °C 17.9 °C 92 % 12 km/h (20 km/h) 0 mm0 mm 19.6 °C 19.3 °C 19.1 °C 57460 m 0   0 min 0 W/m² 1023.4 hPa
01:30 19.2 °C 17.9 °C 92 % 12 km/h (18 km/h) 0 mm0 mm 19.6 °C 19.4 °C 19.1 °C 55960 m 0   0 min 0 W/m² 1023.4 hPa
01:24 19.3 °C 18.1 °C 93 % 14 km/h (24 km/h) 0 mm0 mm 19.6 °C 19.4 °C 19.1 °C 50290 m 0   0 min 0 W/m² 1023.4 hPa
01:18 19.3 °C 18.3 °C 94 % 14 km/h (24 km/h) 0 mm0 mm 19.6 °C 19.3 °C 19.1 °C 46900 m 0   0 min 0 W/m² 1023.4 hPa
01:12 19.3 °C 18.3 °C 94 % 14 km/h (22 km/h) 0 mm0 mm 19.6 °C 19.4 °C 19.1 °C 45470 m 0   0 min 0 W/m² 1023.4 hPa
01:06 19.3 °C 18.3 °C 94 % 15 km/h (24 km/h) 0 mm0 mm 19.6 °C 19.4 °C 19.1 °C 45180 m 0   0 min 0 W/m² 1023.3 hPa
01:00 19.3 °C 18.3 °C 94 % 14 km/h (22 km/h) 0 mm0 mm 19.6 °C 19.3 °C 19.1 °C 48840 m 0   0 min 0 W/m² 1023.3 hPa 8 Octas
00:54 19.3 °C 18.1 °C 93 % 13 km/h (21 km/h) 0 mm0 mm 19.6 °C 19.4 °C 19.1 °C 47170 m 0   0 min 0 W/m² 1023.3 hPa
00:48 19.3 °C 18.3 °C 94 % 15 km/h (27 km/h) 0 mm0 mm 19.7 °C 19.4 °C 19.1 °C 43530 m 0   0 min 0 W/m² 1023.4 hPa
00:42 19.3 °C 18.3 °C 94 % 18 km/h (27 km/h) 0 mm0 mm 19.7 °C 19.4 °C 19.1 °C 41580 m 0   0 min 0 W/m² 1023.4 hPa
00:36 19.3 °C 18.3 °C 94 % 16 km/h (27 km/h) 0 mm0 mm 19.7 °C 19.3 °C 19.1 °C 42350 m 0   0 min 0 W/m² 1023.4 hPa
00:30 19.3 °C 18.3 °C 94 % 17 km/h (27 km/h) 0 mm0 mm 19.6 °C 19.4 °C 19.1 °C 41340 m 0   0 min 0 W/m² 1023.3 hPa
00:24 19.3 °C 18.3 °C 94 % 16 km/h (27 km/h) 0 mm0 mm 19.7 °C 19.3 °C 19.1 °C 19870 m 0   0 min 0 W/m² 1023.2 hPa
00:18 19.3 °C 18.3 °C 94 % 14 km/h (22 km/h) 0 mm0 mm 19.7 °C 19.4 °C 19.1 °C 19870 m 0   0 min 0 W/m² 1023.1 hPa
00:12 19.3 °C 18.3 °C 94 % 13 km/h (20 km/h) 0 mm0 mm 19.7 °C 19.4 °C 19.1 °C 40160 m 0   0 min 0 W/m² 1023.2 hPa
00:06 19.3 °C 18.3 °C 94 % 14 km/h (22 km/h) 0 mm0 mm 19.7 °C 19.3 °C 19.1 °C 40670 m 0   0 min 0 W/m² 1023.2 hPa
00:00 19.3 °C 18.3 °C 94 % 14 km/h (22 km/h) 0 mm0 mm 19.7 °C 19.3 °C 19.1 °C 42590 m 0   0 min 0 W/m² 1023.3 hPa 8 Octas

Données via Météo-France

Relevés météo à Quimper

Cette page rassemble les observations de la station de Quimper : température, humidité, vent, précipitations et pression atmosphérique. Les graphiques facilitent le suivi de la journée, tandis que le tableau donne accès aux mesures horaires et infra-horaires disponibles.

Pour replacer ces mesures dans leur contexte, consultez la climatologie de Quimper ainsi que ses normales et records. Retrouvez aussi la carte des observations météo en temps réel.